sensor_id;sensor_type;location;lat;lon;timestamp;pressure;altitude;pressure_sealevel;temperature;humidity
47636;BME280;33364;50.766;15.338;2023-04-27T00:00:57;95060.47;;;0.16;67.92
47636;BME280;33364;50.766;15.338;2023-04-27T00:03:22;95063.97;;;0.08;68.79
47636;BME280;33364;50.766;15.338;2023-04-27T00:05:48;95059.16;;;-0.03;68.73
47636;BME280;33364;50.766;15.338;2023-04-27T00:08:14;95060.94;;;-0.04;68.28
47636;BME280;33364;50.766;15.338;2023-04-27T00:10:39;95050.88;;;-0.30;67.76
47636;BME280;33364;50.766;15.338;2023-04-27T00:13:05;95053.75;;;-0.25;71.31
47636;BME280;33364;50.766;15.338;2023-04-27T00:15:31;95051.03;;;-0.08;70.39
47636;BME280;33364;50.766;15.338;2023-04-27T00:17:57;95046.75;;;-0.01;70.43
47636;BME280;33364;50.766;15.338;2023-04-27T00:20:23;95040.66;;;-0.16;67.80
47636;BME280;33364;50.766;15.338;2023-04-27T00:22:49;95038.25;;;-0.26;70.96
47636;BME280;33364;50.766;15.338;2023-04-27T00:25:15;95039.03;;;-0.17;71.17
47636;BME280;33364;50.766;15.338;2023-04-27T00:27:40;95040.78;;;-0.10;69.70
47636;BME280;33364;50.766;15.338;2023-04-27T00:30:07;95040.28;;;-0.13;67.92
47636;BME280;33364;50.766;15.338;2023-04-27T00:32:32;95040.31;;;-0.37;70.20
47636;BME280;33364;50.766;15.338;2023-04-27T00:34:58;95040.06;;;-0.27;69.84
47636;BME280;33364;50.766;15.338;2023-04-27T00:37:24;95046.59;;;-0.23;69.84
47636;BME280;33364;50.766;15.338;2023-04-27T00:39:51;95042.06;;;-0.29;68.61
47636;BME280;33364;50.766;15.338;2023-04-27T00:42:16;95045.19;;;-0.33;69.70
47636;BME280;33364;50.766;15.338;2023-04-27T00:44:45;95049.72;;;-0.27;71.17
47636;BME280;33364;50.766;15.338;2023-04-27T00:47:11;95043.63;;;-0.20;70.02
47636;BME280;33364;50.766;15.338;2023-04-27T00:49:38;95051.03;;;-0.08;70.30
47636;BME280;33364;50.766;15.338;2023-04-27T00:52:04;95047.38;;;0.01;70.00
47636;BME280;33364;50.766;15.338;2023-04-27T00:54:30;95051.63;;;-0.21;68.65
47636;BME280;33364;50.766;15.338;2023-04-27T00:56:55;95049.94;;;-0.14;71.60
47636;BME280;33364;50.766;15.338;2023-04-27T00:59:22;95051.03;;;-0.08;69.25
47636;BME280;33364;50.766;15.338;2023-04-27T01:01:48;95055.16;;;-0.14;68.40
47636;BME280;33364;50.766;15.338;2023-04-27T01:04:15;95052.97;;;-0.25;69.00
47636;BME280;33364;50.766;15.338;2023-04-27T01:06:43;95051.94;;;-0.39;69.23
47636;BME280;33364;50.766;15.338;2023-04-27T01:09:10;95053.94;;;-0.49;69.37
47636;BME280;33364;50.766;15.338;2023-04-27T01:11:36;95054.81;;;-0.34;70.36
47636;BME280;33364;50.766;15.338;2023-04-27T01:14:05;95042.63;;;-0.42;68.35
47636;BME280;33364;50.766;15.338;2023-04-27T01:16:34;95050.75;;;-0.37;72.24
47636;BME280;33364;50.766;15.338;2023-04-27T01:19:00;95045.75;;;-0.46;69.23
47636;BME280;33364;50.766;15.338;2023-04-27T01:21:26;95054.09;;;-0.51;71.17
47636;BME280;33364;50.766;15.338;2023-04-27T01:23:52;95056.78;;;-0.36;71.16
47636;BME280;33364;50.766;15.338;2023-04-27T01:26:18;95050.81;;;-0.45;69.19
47636;BME280;33364;50.766;15.338;2023-04-27T01:28:44;95047.03;;;-0.65;70.58
47636;BME280;33364;50.766;15.338;2023-04-27T01:31:10;95052.50;;;-0.52;70.23
47636;BME280;33364;50.766;15.338;2023-04-27T01:33:36;95049.44;;;-0.56;70.34
47636;BME280;33364;50.766;15.338;2023-04-27T01:36:02;95060.50;;;-0.53;70.34
47636;BME280;33364;50.766;15.338;2023-04-27T01:38:28;95057.66;;;-0.44;70.41
47636;BME280;33364;50.766;15.338;2023-04-27T01:40:54;95058.63;;;-0.45;69.81
47636;BME280;33364;50.766;15.338;2023-04-27T01:43:30;95061.19;;;-0.37;70.69
47636;BME280;33364;50.766;15.338;2023-04-27T01:46:04;95054.59;;;-0.24;70.72
47636;BME280;33364;50.766;15.338;2023-04-27T01:48:30;95054.72;;;-0.41;69.00
47636;BME280;33364;50.766;15.338;2023-04-27T01:50:55;95052.31;;;-0.50;69.12
47636;BME280;33364;50.766;15.338;2023-04-27T01:53:21;95058.97;;;-0.71;69.90
47636;BME280;33364;50.766;15.338;2023-04-27T01:55:47;95053.84;;;-0.64;71.07
47636;BME280;33364;50.766;15.338;2023-04-27T01:58:13;95061.41;;;-0.69;71.02
47636;BME280;33364;50.766;15.338;2023-04-27T02:00:38;95058.91;;;-0.63;71.64
47636;BME280;33364;50.766;15.338;2023-04-27T02:03:04;95073.53;;;-0.53;70.93
47636;BME280;33364;50.766;15.338;2023-04-27T02:05:30;95063.09;;;-0.53;70.48
47636;BME280;33364;50.766;15.338;2023-04-27T02:07:56;95069.13;;;-0.84;68.96
47636;BME280;33364;50.766;15.338;2023-04-27T02:10:22;95069.44;;;-0.79;72.28
47636;BME280;33364;50.766;15.338;2023-04-27T02:12:48;95060.94;;;-0.73;71.44
47636;BME280;33364;50.766;15.338;2023-04-27T02:15:13;95071.91;;;-0.54;72.54
47636;BME280;33364;50.766;15.338;2023-04-27T02:17:39;95071.78;;;-0.61;69.85
47636;BME280;33364;50.766;15.338;2023-04-27T02:20:06;95075.56;;;-0.64;70.55
47636;BME280;33364;50.766;15.338;2023-04-27T02:22:32;95076.84;;;-0.60;70.36
47636;BME280;33364;50.766;15.338;2023-04-27T02:25:00;95085.50;;;-0.67;69.61
47636;BME280;33364;50.766;15.338;2023-04-27T02:27:26;95094.69;;;-0.71;72.38
47636;BME280;33364;50.766;15.338;2023-04-27T02:29:52;95090.09;;;-0.69;70.31
47636;BME280;33364;50.766;15.338;2023-04-27T02:32:18;95091.28;;;-0.80;69.62
47636;BME280;33364;50.766;15.338;2023-04-27T02:34:43;95092.25;;;-0.73;72.93
47636;BME280;33364;50.766;15.338;2023-04-27T02:37:09;95087.28;;;-0.60;70.70
47636;BME280;33364;50.766;15.338;2023-04-27T02:39:35;95087.50;;;-0.69;71.07
47636;BME280;33364;50.766;15.338;2023-04-27T02:42:01;95089.28;;;-1.01;69.06
47636;BME280;33364;50.766;15.338;2023-04-27T02:44:28;95084.34;;;-1.52;70.58
47636;BME280;33364;50.766;15.338;2023-04-27T02:46:54;95093.31;;;-1.46;74.46
47636;BME280;33364;50.766;15.338;2023-04-27T02:49:19;95088.22;;;-1.32;72.62
47636;BME280;33364;50.766;15.338;2023-04-27T02:51:45;95085.25;;;-1.20;71.61
47636;BME280;33364;50.766;15.338;2023-04-27T02:54:11;95090.78;;;-1.15;71.11
47636;BME280;33364;50.766;15.338;2023-04-27T02:56:37;95085.31;;;-1.45;71.02
47636;BME280;33364;50.766;15.338;2023-04-27T02:59:02;95086.38;;;-1.23;74.43
47636;BME280;33364;50.766;15.338;2023-04-27T03:01:28;95087.06;;;-1.21;71.37
47636;BME280;33364;50.766;15.338;2023-04-27T03:03:54;95078.31;;;-1.44;72.06
47636;BME280;33364;50.766;15.338;2023-04-27T03:06:20;95086.09;;;-1.36;72.55
47636;BME280;33364;50.766;15.338;2023-04-27T03:08:45;95082.72;;;-1.45;71.68
47636;BME280;33364;50.766;15.338;2023-04-27T03:11:11;95092.50;;;-1.47;73.46
47636;BME280;33364;50.766;15.338;2023-04-27T03:13:37;95086.78;;;-1.51;72.77
47636;BME280;33364;50.766;15.338;2023-04-27T03:16:09;95092.34;;;-1.62;74.61
47636;BME280;33364;50.766;15.338;2023-04-27T03:18:38;95089.38;;;-1.42;74.25
47636;BME280;33364;50.766;15.338;2023-04-27T03:21:08;95088.72;;;-1.36;71.43
47636;BME280;33364;50.766;15.338;2023-04-27T03:23:34;95095.94;;;-1.63;71.27
47636;BME280;33364;50.766;15.338;2023-04-27T03:26:13;95093.34;;;-1.71;71.60
47636;BME280;33364;50.766;15.338;2023-04-27T03:28:39;95105.22;;;-1.93;72.45
47636;BME280;33364;50.766;15.338;2023-04-27T03:31:06;95101.50;;;-1.82;73.76
47636;BME280;33364;50.766;15.338;2023-04-27T03:33:32;95101.66;;;-1.76;72.40
47636;BME280;33364;50.766;15.338;2023-04-27T03:35:58;95097.56;;;-1.87;72.59
47636;BME280;33364;50.766;15.338;2023-04-27T03:38:25;95102.63;;;-1.85;74.94
47636;BME280;33364;50.766;15.338;2023-04-27T03:40:52;95098.41;;;-1.86;71.99
47636;BME280;33364;50.766;15.338;2023-04-27T03:43:19;95107.50;;;-1.82;72.44
47636;BME280;33364;50.766;15.338;2023-04-27T03:45:45;95109.31;;;-1.91;72.60
47636;BME280;33364;50.766;15.338;2023-04-27T03:48:12;95110.09;;;-1.82;73.29
47636;BME280;33364;50.766;15.338;2023-04-27T03:50:38;95104.56;;;-1.71;73.11
47636;BME280;33364;50.766;15.338;2023-04-27T03:53:03;95113.50;;;-1.81;72.00
47636;BME280;33364;50.766;15.338;2023-04-27T03:55:29;95112.22;;;-1.77;72.89
47636;BME280;33364;50.766;15.338;2023-04-27T03:57:55;95117.91;;;-1.66;72.68
47636;BME280;33364;50.766;15.338;2023-04-27T04:00:21;95113.50;;;-1.81;72.21
47636;BME280;33364;50.766;15.338;2023-04-27T04:02:47;95122.16;;;-1.73;73.54
47636;BME280;33364;50.766;15.338;2023-04-27T04:05:13;95113.03;;;-1.85;72.46
47636;BME280;33364;50.766;15.338;2023-04-27T04:14:59;95126.41;;;-1.63;71.99
47636;BME280;33364;50.766;15.338;2023-04-27T04:17:25;95128.81;;;-1.62;73.19
47636;BME280;33364;50.766;15.338;2023-04-27T04:19:51;95130.13;;;-1.58;72.69
47636;BME280;33364;50.766;15.338;2023-04-27T04:22:17;95132.41;;;-1.55;71.89
47636;BME280;33364;50.766;15.338;2023-04-27T04:24:42;95134.84;;;-1.61;72.37
47636;BME280;33364;50.766;15.338;2023-04-27T04:27:08;95130.13;;;-1.50;72.85
47636;BME280;33364;50.766;15.338;2023-04-27T04:29:34;95139.06;;;-1.44;72.33
47636;BME280;33364;50.766;15.338;2023-04-27T04:32:00;95135.94;;;-1.39;73.81
47636;BME280;33364;50.766;15.338;2023-04-27T04:34:25;95140.66;;;-1.18;73.78
47636;BME280;33364;50.766;15.338;2023-04-27T04:36:51;95143.56;;;-1.13;72.11
47636;BME280;33364;50.766;15.338;2023-04-27T04:39:18;95149.06;;;-1.00;73.20
47636;BME280;33364;50.766;15.338;2023-04-27T04:41:46;95153.44;;;-0.92;73.03
47636;BME280;33364;50.766;15.338;2023-04-27T04:44:14;95147.44;;;-0.93;72.09
47636;BME280;33364;50.766;15.338;2023-04-27T04:46:41;95158.22;;;-1.04;72.19
47636;BME280;33364;50.766;15.338;2023-04-27T04:49:06;95155.75;;;-0.97;72.74
47636;BME280;33364;50.766;15.338;2023-04-27T04:51:33;95155.59;;;-0.96;72.10
47636;BME280;33364;50.766;15.338;2023-04-27T04:53:58;95152.84;;;-1.11;73.01
47636;BME280;33364;50.766;15.338;2023-04-27T04:56:24;95150.75;;;-1.15;73.77
47636;BME280;33364;50.766;15.338;2023-04-27T04:58:50;95155.94;;;-1.07;74.17
47636;BME280;33364;50.766;15.338;2023-04-27T05:01:16;95155.56;;;-0.87;73.73
47636;BME280;33364;50.766;15.338;2023-04-27T05:03:41;95151.66;;;-0.83;73.05
47636;BME280;33364;50.766;15.338;2023-04-27T05:06:07;95158.78;;;-0.77;73.90
47636;BME280;33364;50.766;15.338;2023-04-27T05:08:33;95157.13;;;-0.70;73.83
47636;BME280;33364;50.766;15.338;2023-04-27T05:10:59;95160.81;;;-0.56;74.17
47636;BME280;33364;50.766;15.338;2023-04-27T05:13:24;95161.06;;;-0.43;72.94
47636;BME280;33364;50.766;15.338;2023-04-27T05:15:51;95164.75;;;-0.60;73.46
47636;BME280;33364;50.766;15.338;2023-04-27T05:18:17;95159.03;;;-0.56;73.55
47636;BME280;33364;50.766;15.338;2023-04-27T05:20:43;95165.50;;;-0.43;73.29
47636;BME280;33364;50.766;15.338;2023-04-27T05:23:09;95160.41;;;-0.37;73.63
47636;BME280;33364;50.766;15.338;2023-04-27T05:25:36;95166.03;;;-0.25;73.16
47636;BME280;33364;50.766;15.338;2023-04-27T05:28:08;95165.19;;;-0.17;73.55
47636;BME280;33364;50.766;15.338;2023-04-27T05:30:35;95162.78;;;0.05;72.78
47636;BME280;33364;50.766;15.338;2023-04-27T05:33:01;95167.19;;;0.27;72.37
47636;BME280;33364;50.766;15.338;2023-04-27T05:35:27;95168.59;;;0.38;72.12
47636;BME280;33364;50.766;15.338;2023-04-27T05:37:54;95160.63;;;0.54;70.81
47636;BME280;33364;50.766;15.338;2023-04-27T05:40:21;95170.94;;;0.71;71.80
47636;BME280;33364;50.766;15.338;2023-04-27T05:42:47;95161.28;;;0.86;70.17
47636;BME280;33364;50.766;15.338;2023-04-27T05:45:13;95168.16;;;0.87;70.26
47636;BME280;33364;50.766;15.338;2023-04-27T05:47:39;95169.34;;;1.00;70.30
47636;BME280;33364;50.766;15.338;2023-04-27T05:50:05;95175.13;;;1.10;70.44
47636;BME280;33364;50.766;15.338;2023-04-27T05:52:31;95170.25;;;1.37;69.77
47636;BME280;33364;50.766;15.338;2023-04-27T05:54:57;95177.63;;;1.63;69.84
47636;BME280;33364;50.766;15.338;2023-04-27T05:57:23;95168.72;;;1.94;68.55
47636;BME280;33364;50.766;15.338;2023-04-27T05:59:50;95167.44;;;2.05;67.45
47636;BME280;33364;50.766;15.338;2023-04-27T06:02:16;95160.75;;;2.24;67.41
47636;BME280;33364;50.766;15.338;2023-04-27T06:04:42;95155.91;;;2.42;66.50
47636;BME280;33364;50.766;15.338;2023-04-27T06:07:12;95153.44;;;2.62;66.64
47636;BME280;33364;50.766;15.338;2023-04-27T06:09:39;95166.75;;;2.89;65.38
47636;BME280;33364;50.766;15.338;2023-04-27T06:12:06;95160.59;;;3.03;63.92
47636;BME280;33364;50.766;15.338;2023-04-27T06:14:33;95160.34;;;3.26;62.90
47636;BME280;33364;50.766;15.338;2023-04-27T06:16:59;95159.53;;;3.26;60.66
47636;BME280;33364;50.766;15.338;2023-04-27T06:19:24;95157.97;;;3.38;58.26
47636;BME280;33364;50.766;15.338;2023-04-27T06:21:52;95163.91;;;3.54;59.65
47636;BME280;33364;50.766;15.338;2023-04-27T06:24:18;95159.53;;;3.67;57.60
47636;BME280;33364;50.766;15.338;2023-04-27T06:26:44;95156.13;;;3.80;58.36
47636;BME280;33364;50.766;15.338;2023-04-27T06:29:10;95164.09;;;4.00;57.17
47636;BME280;33364;50.766;15.338;2023-04-27T06:31:36;95156.88;;;4.16;56.45
47636;BME280;33364;50.766;15.338;2023-04-27T06:34:02;95166.59;;;4.29;55.29
47636;BME280;33364;50.766;15.338;2023-04-27T06:36:28;95164.59;;;4.37;54.82
47636;BME280;33364;50.766;15.338;2023-04-27T06:38:54;95162.78;;;4.45;54.65
47636;BME280;33364;50.766;15.338;2023-04-27T06:41:21;95162.16;;;4.43;55.30
47636;BME280;33364;50.766;15.338;2023-04-27T06:43:47;95156.69;;;4.24;55.63
47636;BME280;33364;50.766;15.338;2023-04-27T06:46:13;95156.63;;;4.04;56.54
47636;BME280;33364;50.766;15.338;2023-04-27T06:48:39;95151.94;;;3.93;56.74
47636;BME280;33364;50.766;15.338;2023-04-27T06:51:06;95154.38;;;3.88;56.02
47636;BME280;33364;50.766;15.338;2023-04-27T06:53:32;95157.16;;;3.79;56.22
47636;BME280;33364;50.766;15.338;2023-04-27T06:55:57;95156.34;;;3.79;56.58
47636;BME280;33364;50.766;15.338;2023-04-27T06:58:24;95155.53;;;3.78;56.85
47636;BME280;33364;50.766;15.338;2023-04-27T07:00:50;95156.97;;;3.81;56.94
47636;BME280;33364;50.766;15.338;2023-04-27T07:03:16;95155.16;;;3.88;57.67
47636;BME280;33364;50.766;15.338;2023-04-27T07:05:41;95152.75;;;3.93;56.43
47636;BME280;33364;50.766;15.338;2023-04-27T07:08:07;95157.44;;;4.04;57.21
47636;BME280;33364;50.766;15.338;2023-04-27T07:10:33;95159.72;;;4.28;55.31
47636;BME280;33364;50.766;15.338;2023-04-27T07:12:59;95161.16;;;4.30;55.02
47636;BME280;33364;50.766;15.338;2023-04-27T07:15:25;95160.91;;;4.18;54.39
47636;BME280;33364;50.766;15.338;2023-04-27T07:17:51;95157.28;;;4.33;54.92
47636;BME280;33364;50.766;15.338;2023-04-27T07:20:20;95156.09;;;4.49;54.69
47636;BME280;33364;50.766;15.338;2023-04-27T07:22:46;95153.47;;;4.82;52.72
47636;BME280;33364;50.766;15.338;2023-04-27T07:25:12;95150.63;;;4.90;51.84
47636;BME280;33364;50.766;15.338;2023-04-27T07:27:38;95151.47;;;4.77;50.35
47636;BME280;33364;50.766;15.338;2023-04-27T07:30:04;95159.56;;;4.83;50.72
47636;BME280;33364;50.766;15.338;2023-04-27T07:32:34;95149.22;;;4.94;50.04
47636;BME280;33364;50.766;15.338;2023-04-27T07:35:00;95150.44;;;4.72;52.11
47636;BME280;33364;50.766;15.338;2023-04-27T07:37:26;95155.91;;;4.77;52.81
47636;BME280;33364;50.766;15.338;2023-04-27T07:39:53;95160.16;;;4.78;52.25
47636;BME280;33364;50.766;15.338;2023-04-27T07:42:19;95152.88;;;4.80;52.27
47636;BME280;33364;50.766;15.338;2023-04-27T07:44:46;95152.66;;;4.82;52.02
47636;BME280;33364;50.766;15.338;2023-04-27T07:47:15;95160.38;;;4.76;52.91
47636;BME280;33364;50.766;15.338;2023-04-27T07:49:44;95161.78;;;4.66;52.13
47636;BME280;33364;50.766;15.338;2023-04-27T07:52:13;95166.44;;;4.50;52.06
47636;BME280;33364;50.766;15.338;2023-04-27T07:54:39;95166.63;;;4.35;52.24
47636;BME280;33364;50.766;15.338;2023-04-27T07:57:09;95172.88;;;4.28;52.47
47636;BME280;33364;50.766;15.338;2023-04-27T07:59:38;95175.06;;;4.17;52.77
47636;BME280;33364;50.766;15.338;2023-04-27T08:02:04;95177.47;;;4.06;53.05
47636;BME280;33364;50.766;15.338;2023-04-27T08:04:30;95169.31;;;3.87;53.51
47636;BME280;33364;50.766;15.338;2023-04-27T08:06:56;95173.97;;;3.92;53.89
47636;BME280;33364;50.766;15.338;2023-04-27T08:09:21;95180.69;;;4.01;54.18
47636;BME280;33364;50.766;15.338;2023-04-27T08:11:47;95176.47;;;4.13;52.95
47636;BME280;33364;50.766;15.338;2023-04-27T08:14:13;95183.78;;;4.25;51.95
47636;BME280;33364;50.766;15.338;2023-04-27T08:16:43;95179.91;;;4.07;51.58
47636;BME280;33364;50.766;15.338;2023-04-27T08:19:09;95178.31;;;4.19;50.67
47636;BME280;33364;50.766;15.338;2023-04-27T08:21:36;95183.38;;;4.21;51.58
47636;BME280;33364;50.766;15.338;2023-04-27T08:24:03;95181.16;;;4.31;50.61
47636;BME280;33364;50.766;15.338;2023-04-27T08:26:29;95178.34;;;4.39;51.46
47636;BME280;33364;50.766;15.338;2023-04-27T08:28:54;95178.78;;;4.50;50.74
47636;BME280;33364;50.766;15.338;2023-04-27T08:31:23;95184.66;;;4.52;49.88
47636;BME280;33364;50.766;15.338;2023-04-27T08:33:49;95182.63;;;4.54;50.03
47636;BME280;33364;50.766;15.338;2023-04-27T08:36:16;95178.00;;;4.63;50.45
47636;BME280;33364;50.766;15.338;2023-04-27T08:38:41;95176.16;;;4.56;49.03
47636;BME280;33364;50.766;15.338;2023-04-27T08:41:07;95173.53;;;4.56;47.99
47636;BME280;33364;50.766;15.338;2023-04-27T08:43:34;95173.91;;;4.40;47.43
47636;BME280;33364;50.766;15.338;2023-04-27T08:46:01;95179.41;;;4.58;47.73
47636;BME280;33364;50.766;15.338;2023-04-27T08:48:26;95174.72;;;4.74;48.99
47636;BME280;33364;50.766;15.338;2023-04-27T08:50:52;95178.00;;;4.83;47.89
47636;BME280;33364;50.766;15.338;2023-04-27T08:53:21;95180.63;;;4.83;47.42
47636;BME280;33364;50.766;15.338;2023-04-27T08:55:50;95185.28;;;4.87;47.56
47636;BME280;33364;50.766;15.338;2023-04-27T08:58:16;95189.94;;;4.78;45.92
47636;BME280;33364;50.766;15.338;2023-04-27T09:00:42;95190.13;;;4.84;47.54
47636;BME280;33364;50.766;15.338;2023-04-27T09:03:20;95192.59;;;4.99;47.60
47636;BME280;33364;50.766;15.338;2023-04-27T09:05:47;95186.47;;;5.11;47.21
47636;BME280;33364;50.766;15.338;2023-04-27T09:08:13;95196.41;;;5.16;46.44
47636;BME280;33364;50.766;15.338;2023-04-27T09:10:43;95192.97;;;5.22;46.62
47636;BME280;33364;50.766;15.338;2023-04-27T09:13:09;95201.28;;;5.19;48.08
47636;BME280;33364;50.766;15.338;2023-04-27T09:15:49;95196.81;;;5.13;47.80
47636;BME280;33364;50.766;15.338;2023-04-27T09:18:20;95196.00;;;5.19;47.68
47636;BME280;33364;50.766;15.338;2023-04-27T09:20:48;95188.53;;;5.03;47.10
47636;BME280;33364;50.766;15.338;2023-04-27T09:23:33;95185.28;;;5.01;47.13
47636;BME280;33364;50.766;15.338;2023-04-27T09:26:02;95190.53;;;5.14;48.18
47636;BME280;33364;50.766;15.338;2023-04-27T09:28:30;95198.84;;;5.18;47.67
47636;BME280;33364;50.766;15.338;2023-04-27T09:30:58;95196.59;;;5.21;46.62
47636;BME280;33364;50.766;15.338;2023-04-27T09:33:29;95192.97;;;5.22;45.57
47636;BME280;33364;50.766;15.338;2023-04-27T09:36:00;95197.84;;;5.19;45.86
47636;BME280;33364;50.766;15.338;2023-04-27T09:38:26;95205.72;;;5.25;46.64
47636;BME280;33364;50.766;15.338;2023-04-27T09:40:53;95201.88;;;5.14;44.84
47636;BME280;33364;50.766;15.338;2023-04-27T09:43:19;95202.50;;;4.96;46.07
47636;BME280;33364;50.766;15.338;2023-04-27T09:45:47;95196.03;;;4.92;47.18
47636;BME280;33364;50.766;15.338;2023-04-27T09:48:13;95203.09;;;4.92;48.38
47636;BME280;33364;50.766;15.338;2023-04-27T09:50:40;95195.19;;;4.85;47.43
47636;BME280;33364;50.766;15.338;2023-04-27T09:53:09;95205.31;;;4.82;48.04
47636;BME280;33364;50.766;15.338;2023-04-27T09:55:39;95207.75;;;4.70;48.25
47636;BME280;33364;50.766;15.338;2023-04-27T10:01:23;95196.03;;;4.86;49.19
47636;BME280;33364;50.766;15.338;2023-04-27T10:07:01;95200.28;;;5.07;48.85
47636;BME280;33364;50.766;15.338;2023-04-27T10:09:48;95199.44;;;5.13;47.87
47636;BME280;33364;50.766;15.338;2023-04-27T10:14:56;95202.25;;;5.45;47.95
47636;BME280;33364;50.766;15.338;2023-04-27T10:17:31;95201.44;;;5.51;46.57
47636;BME280;33364;50.766;15.338;2023-04-27T10:19:59;95198.78;;;5.58;46.11
47636;BME280;33364;50.766;15.338;2023-04-27T10:22:43;95207.03;;;5.81;47.70
47636;BME280;33364;50.766;15.338;2023-04-27T10:27:41;95201.31;;;5.91;46.47
47636;BME280;33364;50.766;15.338;2023-04-27T10:30:09;95195.78;;;6.06;45.71
47636;BME280;33364;50.766;15.338;2023-04-27T10:32:35;95195.53;;;6.21;46.61
47636;BME280;33364;50.766;15.338;2023-04-27T10:35:03;95201.00;;;6.26;45.85
47636;BME280;33364;50.766;15.338;2023-04-27T10:37:39;95197.72;;;6.31;45.88
47636;BME280;33364;50.766;15.338;2023-04-27T10:40:11;95196.72;;;6.25;44.23
47636;BME280;33364;50.766;15.338;2023-04-27T10:42:45;95194.28;;;6.30;44.54
47636;BME280;33364;50.766;15.338;2023-04-27T10:45:12;95187.56;;;6.34;45.00
47636;BME280;33364;50.766;15.338;2023-04-27T10:47:43;95181.41;;;6.40;43.21
47636;BME280;33364;50.766;15.338;2023-04-27T10:50:11;95177.75;;;6.73;42.21
47636;BME280;33364;50.766;15.338;2023-04-27T10:52:42;95171.06;;;6.96;43.01
47636;BME280;33364;50.766;15.338;2023-04-27T10:55:26;95170.88;;;7.60;43.44
47636;BME280;33364;50.766;15.338;2023-04-27T10:57:53;95170.31;;;7.76;41.84
47636;BME280;33364;50.766;15.338;2023-04-27T11:00:24;95173.59;;;7.71;41.73
47636;BME280;33364;50.766;15.338;2023-04-27T11:02:51;95163.94;;;7.65;41.11
47636;BME280;33364;50.766;15.338;2023-04-27T11:05:18;95156.50;;;7.74;40.71
47636;BME280;33364;50.766;15.338;2023-04-27T11:07:45;95159.78;;;7.69;41.15
47636;BME280;33364;50.766;15.338;2023-04-27T11:10:18;95165.94;;;7.26;40.31
47636;BME280;33364;50.766;15.338;2023-04-27T11:12:45;95160.03;;;6.80;40.21
47636;BME280;33364;50.766;15.338;2023-04-27T11:15:11;95162.00;;;6.60;41.79
47636;BME280;33364;50.766;15.338;2023-04-27T11:17:38;95165.22;;;6.69;42.16
47636;BME280;33364;50.766;15.338;2023-04-27T11:20:05;95163.22;;;6.64;41.57
47636;BME280;33364;50.766;15.338;2023-04-27T11:22:34;95170.34;;;6.57;41.37
47636;BME280;33364;50.766;15.338;2023-04-27T11:25:01;95166.91;;;6.56;42.93
47636;BME280;33364;50.766;15.338;2023-04-27T11:27:38;95167.13;;;6.55;43.48
47636;BME280;33364;50.766;15.338;2023-04-27T11:30:05;95170.78;;;6.54;41.57
47636;BME280;33364;50.766;15.338;2023-04-27T11:32:31;95181.31;;;6.54;42.27
47636;BME280;33364;50.766;15.338;2023-04-27T11:34:57;95177.22;;;6.65;41.92
47636;BME280;33364;50.766;15.338;2023-04-27T11:37:24;95181.84;;;6.69;41.26
47636;BME280;33364;50.766;15.338;2023-04-27T11:39:58;95176.69;;;6.81;42.66
47636;BME280;33364;50.766;15.338;2023-04-27T11:42:25;95180.03;;;6.95;41.41
47636;BME280;33364;50.766;15.338;2023-04-27T11:45:00;95180.31;;;6.87;40.12
47636;BME280;33364;50.766;15.338;2023-04-27T11:47:27;95176.91;;;6.79;40.91
47636;BME280;33364;50.766;15.338;2023-04-27T11:49:55;95180.13;;;6.82;40.46
47636;BME280;33364;50.766;15.338;2023-04-27T11:52:26;95176.91;;;6.79;40.89
47636;BME280;33364;50.766;15.338;2023-04-27T11:54:53;95180.28;;;7.12;40.20
47636;BME280;33364;50.766;15.338;2023-04-27T11:57:27;95184.97;;;7.53;38.63
47636;BME280;33364;50.766;15.338;2023-04-27T11:59:55;95176.41;;;7.77;38.90
47636;BME280;33364;50.766;15.338;2023-04-27T12:02:22;95164.94;;;7.64;39.05
47636;BME280;33364;50.766;15.338;2023-04-27T12:04:48;95169.28;;;7.77;40.86
47636;BME280;33364;50.766;15.338;2023-04-27T12:07:14;95171.78;;;7.90;39.74
47636;BME280;33364;50.766;15.338;2023-04-27T12:09:40;95167.59;;;8.50;37.09
47636;BME280;33364;50.766;15.338;2023-04-27T12:12:07;95167.94;;;9.08;37.84
47636;BME280;33364;50.766;15.338;2023-04-27T12:14:33;95174.00;;;8.96;38.22
47636;BME280;33364;50.766;15.338;2023-04-27T12:16:58;95177.78;;;8.77;36.71
47636;BME280;33364;50.766;15.338;2023-04-27T12:19:24;95177.44;;;8.43;37.95
47636;BME280;33364;50.766;15.338;2023-04-27T12:21:51;95174.69;;;8.19;37.85
47636;BME280;33364;50.766;15.338;2023-04-27T12:24:17;95171.06;;;8.14;38.26
47636;BME280;33364;50.766;15.338;2023-04-27T12:26:42;95166.84;;;8.13;38.43
47636;BME280;33364;50.766;15.338;2023-04-27T12:29:08;95163.34;;;8.12;37.89
47636;BME280;33364;50.766;15.338;2023-04-27T12:31:34;95164.56;;;7.79;37.31
47636;BME280;33364;50.766;15.338;2023-04-27T12:34:00;95168.25;;;7.78;38.90
47636;BME280;33364;50.766;15.338;2023-04-27T12:36:26;95174.28;;;7.85;38.45
47636;BME280;33364;50.766;15.338;2023-04-27T12:38:56;95178.66;;;8.10;38.44
47636;BME280;33364;50.766;15.338;2023-04-27T12:41:22;95179.34;;;8.36;38.82
47636;BME280;33364;50.766;15.338;2023-04-27T12:43:48;95176.44;;;8.25;37.36
47636;BME280;33364;50.766;15.338;2023-04-27T12:46:13;95164.81;;;8.26;37.71
47636;BME280;33364;50.766;15.338;2023-04-27T12:48:39;95174.59;;;8.26;37.61
47636;BME280;33364;50.766;15.338;2023-04-27T12:51:05;95172.16;;;8.24;39.02
47636;BME280;33364;50.766;15.338;2023-04-27T12:53:32;95172.31;;;8.30;37.33
47636;BME280;33364;50.766;15.338;2023-04-27T12:55:58;95168.22;;;8.76;37.30
47636;BME280;33364;50.766;15.338;2023-04-27T12:58:26;95159.47;;;8.75;38.41
47636;BME280;33364;50.766;15.338;2023-04-27T13:00:54;95159.56;;;8.69;37.98
47636;BME280;33364;50.766;15.338;2023-04-27T13:03:25;95164.28;;;8.67;36.09
47636;BME280;33364;50.766;15.338;2023-04-27T13:05:50;95164.81;;;8.26;36.61
47636;BME280;33364;50.766;15.338;2023-04-27T13:08:16;95171.72;;;8.27;37.09
47636;BME280;33364;50.766;15.338;2023-04-27T13:10:42;95167.19;;;8.16;37.48
47636;BME280;33364;50.766;15.338;2023-04-27T13:13:08;95172.22;;;8.06;35.87